Time;durP1;ratioP1;P1;durP2;ratioP2;P2;SDS_P1;SDS_P2;PMS_P1;PMS_P2;Temp;Humidity;BMP_temperature;BMP_pressure;BME280_temperature;BME280_humidity;BME280_pressure;Samples;Min_cycle;Max_cycle;Signal;HPM_P1;HPM_P2
2022/09/13 00:01:48;;;;;;;3.10;1.33;;;;;;;;;;5013681;28;20038;-55
2022/09/13 00:04:14;;;;;;;1.55;1.42;;;;;;;;;;5013694;28;20046;-56
2022/09/13 00:06:40;;;;;;;2.55;1.20;;;;;;;;;;5013724;28;20396;-55
2022/09/13 00:09:06;;;;;;;2.33;1.33;;;;;;;;;;5013755;28;20033;-55
2022/09/13 00:11:32;;;;;;;3.17;1.70;;;;;;;;;;5013667;28;20041;-54
2022/09/13 00:13:58;;;;;;;1.88;1.60;;;;;;;;;;5013655;28;20030;-54
2022/09/13 00:16:26;;;;;;;1.77;1.40;;;24.90;79.10;;;;;;5013771;28;20111;-54
2022/09/13 00:18:53;;;;;;;2.25;1.48;;;24.90;79.20;;;;;;5013434;28;20046;-53
2022/09/13 00:21:20;;;;;;;1.83;1.30;;;24.90;79.10;;;;;;5013444;28;20164;-54
2022/09/13 00:23:48;;;;;;;2.10;1.90;;;24.90;79.10;;;;;;5013448;28;20026;-54
2022/09/13 00:26:18;;;;;;;2.00;1.83;;;24.90;79.20;;;;;;5013426;28;20018;-52
2022/09/13 00:28:44;;;;;;;1.70;1.50;;;;;;;;;;5013352;28;20022;-54
2022/09/13 00:31:10;;;;;;;1.52;1.42;;;;;;;;;;5013348;28;20376;-53
2022/09/13 00:33:36;;;;;;;2.33;1.70;;;;;;;;;;5013370;28;20036;-59
2022/09/13 00:36:04;;;;;;;1.95;1.67;;;25.00;79.10;;;;;;5013260;28;20488;-59
2022/09/13 00:38:31;;;;;;;1.70;1.60;;;;;;;;;;5013274;28;20018;-59
2022/09/13 00:40:56;;;;;;;1.85;1.75;;;;;;;;;;5013008;28;20126;-59
2022/09/13 00:43:50;;;;;;;1.70;1.60;;;24.80;78.90;;;;;;5013170;28;20050;-59
2022/09/13 00:46:38;;;;;;;1.95;1.60;;;24.80;72.70;;;;;;5013193;28;20041;-59
2022/09/13 00:49:13;;;;;;;3.25;1.40;;;24.90;79.10;;;;;;5013101;28;20026;-59
2022/09/13 00:51:43;;;;;;;2.95;1.73;;;24.90;79.00;;;;;;5013055;28;20029;-59
2022/09/13 00:54:09;;;;;;;1.75;1.65;;;;;;;;;;5013008;28;20026;-58
2022/09/13 00:56:42;;;;;;;1.67;1.45;;;24.80;78.90;;;;;;5012967;28;20025;-61
2022/09/13 00:59:49;;;;;;;1.90;1.52;;;24.90;72.90;;;;;;5012915;28;20100;-58
2022/09/13 01:02:15;;;;;;;3.00;1.73;;;;;;;;;;5012099;28;20184;-59
2022/09/13 01:04:41;;;;;;;2.08;1.63;;;;;;;;;;5012802;28;20496;-60
2022/09/13 01:07:10;;;;;;;2.08;1.90;;;24.80;79.10;;;;;;5012727;28;20100;-59
2022/09/13 01:09:40;;;;;;;1.73;1.48;;;24.80;79.00;;;;;;5012674;28;20097;-61
2022/09/13 01:12:09;;;;;;;2.13;1.65;;;;;;;;;;5012963;28;20384;-60
2022/09/13 01:14:35;;;;;;;1.75;1.40;;;24.70;76.50;;;;;;5012601;28;20391;-60
2022/09/13 01:17:01;;;;;;;1.40;1.30;;;;;;;;;;5012579;28;20094;-60
2022/09/13 01:19:28;;;;;;;1.55;1.45;;;;;;;;;;5012569;28;20030;-60
2022/09/13 01:22:18;;;;;;;1.20;1.10;;;24.60;72.80;;;;;;5012387;28;20496;-60
2022/09/13 01:24:56;;;;;;;1.52;1.33;;;24.80;73.00;;;;;;5012541;28;20117;-58
2022/09/13 01:27:22;;;;;;;1.60;1.50;;;;;;;;;;5012523;28;20038;-60
2022/09/13 01:30:08;;;;;;;2.53;1.35;;;24.70;72.60;;;;;;5012550;28;20476;-58
2022/09/13 01:32:49;;;;;;;2.17;1.83;;;24.80;73.00;;;;;;5012425;28;20037;-58
2022/09/13 01:35:40;;;;;;;1.67;1.58;;;24.60;73.10;;;;;;5012753;28;20385;-58
2022/09/13 01:38:57;;;;;;;2.13;1.60;;;24.60;73.10;;;;;;5009420;28;20041;-59
2022/09/13 01:42:01;;;;;;;1.40;1.30;;;24.80;73.20;;;;;;4979011;28;20050;-59
2022/09/13 01:44:47;;;;;;;1.33;1.25;;;24.90;73.40;;;;;;5012350;28;20369;-59
2022/09/13 01:47:30;;;;;;;1.40;1.30;;;24.80;73.50;;;;;;5012391;28;20030;-53
2022/09/13 01:50:04;;;;;;;2.15;1.40;;;24.80;73.30;;;;;;5012286;28;20030;-57
2022/09/13 01:52:44;;;;;;;1.70;1.60;;;24.80;79.80;;;;;;5012223;28;20109;-54
2022/09/13 01:55:35;;;;;;;1.63;1.45;;;24.70;73.10;;;;;;5012204;28;20034;-54
2022/09/13 01:58:16;;;;;;;3.33;1.40;;;24.80;73.30;;;;;;5001472;28;20584;-54
2022/09/13 02:01:02;;;;;;;2.25;1.60;;;24.80;73.20;;;;;;5012116;28;20046;-56
2022/09/13 02:03:35;;;;;;;1.60;1.50;;;24.90;79.50;;;;;;5011935;28;20081;-54
2022/09/13 02:06:07;;;;;;;1.90;1.30;;;24.50;79.40;;;;;;5012276;28;20030;-55
2022/09/13 02:08:47;;;;;;;1.27;1.17;;;24.80;73.40;;;;;;5012165;28;20022;-55
2022/09/13 02:11:16;;;;;;;1.40;1.30;;;24.80;79.50;;;;;;5012100;28;20080;-54
2022/09/13 02:14:05;;;;;;;2.92;1.63;;;24.70;73.40;;;;;;5012111;28;20026;-53
2022/09/13 02:16:38;;;;;;;1.67;1.35;;;24.70;79.30;;;;;;5012082;28;20057;-54
2022/09/13 02:19:12;;;;;;;1.60;1.17;;;24.40;73.20;;;;;;5011977;28;20034;-54
2022/09/13 02:21:43;;;;;;;2.13;1.75;;;24.70;79.60;;;;;;5012618;28;20125;-54
2022/09/13 02:24:20;;;;;;;1.90;1.30;;;24.70;73.60;;;;;;5015892;28;20048;-59
2022/09/13 02:26:49;;;;;;;1.55;1.45;;;24.70;78.60;;;;;;5016091;28;20026;-58
2022/09/13 02:29:19;;;;;;;2.03;1.23;;;24.70;79.70;;;;;;5015655;28;20472;-59
2022/09/13 02:32:02;;;;;;;1.60;1.50;;;24.70;73.40;;;;;;4998219;28;20037;-59
2022/09/13 02:34:37;;;;;;;1.50;1.40;;;24.70;79.50;;;;;;5015514;28;20042;-59
2022/09/13 02:37:06;;;;;;;2.25;1.60;;;24.60;79.40;;;;;;5015580;28;20026;-59
2022/09/13 02:39:36;;;;;;;1.70;1.50;;;24.70;79.50;;;;;;5015408;28;20085;-59
2022/09/13 02:42:16;;;;;;;1.65;1.45;;;24.70;73.60;;;;;;5015409;28;20068;-59
2022/09/13 02:44:45;;;;;;;2.10;1.20;;;24.70;79.40;;;;;;5015551;28;20030;-59
2022/09/13 02:47:33;;;;;;;2.73;1.50;;;24.70;73.70;;;;;;5015594;28;20048;-59
2022/09/13 02:49:59;;;;;;;1.67;1.55;;;;;;;;;;5015296;28;20022;-59
2022/09/13 02:52:33;;;;;;;1.58;1.33;;;24.70;73.70;;;;;;5015475;28;20033;-59
2022/09/13 02:55:52;;;;;;;1.30;1.20;;;24.60;73.50;;;;;;5015235;28;20060;-59
2022/09/13 02:58:18;;;;;;;1.52;1.42;;;;;;;;;;4954454;29;20044;-58
2022/09/13 03:00:46;;;;;;;1.52;1.40;;;;;;;;;;4954436;29;20039;-53
2022/09/13 03:03:14;;;;;;;1.60;1.35;;;24.60;79.90;;;;;;4983036;28;20428;-53
2022/09/13 03:05:40;;;;;;;1.48;1.38;;;;;;;;;;5014890;28;20030;-53
2022/09/13 03:08:09;;;;;;;1.77;1.60;;;24.70;80.20;;;;;;5014980;28;20105;-54
2022/09/13 03:10:46;;;;;;;1.50;1.40;;;24.70;80.00;;;;;;5014870;28;20022;-53
2022/09/13 03:13:29;;;;;;;2.90;1.42;;;24.70;80.10;;;;;;5014857;28;20041;-56
2022/09/13 03:16:14;;;;;;;3.97;1.85;;;24.70;73.90;;;;;;5014845;28;20030;-56
2022/09/13 03:18:51;;;;;;;1.65;1.40;;;24.60;73.90;;;;;;5014814;28;20049;-53
2022/09/13 03:21:17;;;;;;;1.75;1.65;;;;;;;;;;5014686;28;20052;-54
2022/09/13 03:24:04;;;;;;;1.75;1.42;;;24.60;73.90;;;;;;5014636;28;20047;-54
2022/09/13 03:26:48;;;;;;;1.55;1.23;;;24.50;73.70;;;;;;5014825;28;20037;-55
2022/09/13 03:29:36;;;;;;;2.00;1.70;;;24.60;73.80;;;;;;5014586;28;20124;-56
2022/09/13 03:32:30;;;;;;;1.60;1.50;;;24.60;73.80;;;;;;5014567;28;20022;-55
2022/09/13 03:35:05;;;;;;;1.80;1.70;;;24.60;74.00;;;;;;5013681;28;20029;-56
2022/09/13 03:37:49;;;;;;;1.40;1.30;;;24.70;73.90;;;;;;5014502;28;20030;-60
2022/09/13 03:40:27;;;;;;;1.67;1.58;;;24.60;79.90;;;;;;5014580;28;20034;-61
2022/09/13 03:43:34;;;;;;;1.63;1.48;;;24.60;73.80;;;;;;5014580;28;20040;-61
2022/09/13 03:46:07;;;;;;;1.20;1.10;;;24.60;79.90;;;;;;4982429;28;20407;-60
2022/09/13 03:48:36;;;;;;;1.20;1.10;;;24.60;80.10;;;;;;5014157;28;20025;-60
2022/09/13 03:51:02;;;;;;;1.50;1.40;;;;;;;;;;5014151;28;20503;-61
2022/09/13 03:53:30;;;;;;;1.55;1.25;;;24.60;79.80;;;;;;5013972;28;20036;-60
2022/09/13 03:55:56;;;;;;;1.50;1.40;;;;;;;;;;5014418;28;20372;-60
2022/09/13 03:58:25;;;;;;;1.30;1.20;;;24.60;80.20;;;;;;5013998;28;20037;-60
2022/09/13 04:00:52;;;;;;;1.60;1.50;;;;;;;;;;5013845;28;20128;-60
2022/09/13 04:03:17;;;;;;;1.65;1.55;;;;;;;;;;5013665;28;20061;-60
2022/09/13 04:05:43;;;;;;;1.50;1.40;;;;;;;;;;5014033;28;20528;-60
2022/09/13 04:08:09;;;;;;;1.55;1.42;;;;;;;;;;5013785;28;20029;-60
2022/09/13 04:10:36;;;;;;;1.58;1.48;;;;;;;;;;5013713;28;20030;-61
2022/09/13 04:13:02;;;;;;;1.50;1.40;;;;;;;;;;5013742;28;20165;-59
2022/09/13 04:15:30;;;;;;;1.60;1.50;;;;;;;;;;5013721;28;20152;-55
2022/09/13 04:17:56;;;;;;;2.25;1.30;;;;;;;;;;5013651;28;20033;-55
2022/09/13 04:20:23;;;;;;;1.90;1.73;;;;;;;;;;5013530;28;20105;-55
2022/09/13 04:22:53;;;;;;;1.40;1.30;;;24.50;74.00;;;;;;5013577;28;20030;-54
2022/09/13 04:25:21;;;;;;;3.53;1.40;;;24.50;80.30;;;;;;5013590;28;20030;-54
2022/09/13 04:27:47;;;;;;;1.55;1.27;;;;;;;;;;5013344;28;20061;-56
2022/09/13 04:30:13;;;;;;;1.67;1.58;;;;;;;;;;5013402;28;20037;-56
2022/09/13 04:32:39;;;;;;;1.83;1.50;;;;;;;;;;5013320;28;20109;-54
2022/09/13 04:35:07;;;;;;;1.58;1.48;;;;;;;;;;5013377;28;20106;-54
2022/09/13 04:37:33;;;;;;;1.70;1.55;;;;;;;;;;5013257;28;20431;-55
2022/09/13 04:39:59;;;;;;;1.40;1.30;;;;;;;;;;5013248;28;20030;-55
2022/09/13 04:42:25;;;;;;;1.73;1.50;;;;;;;;;;5013196;28;20484;-54
2022/09/13 04:44:51;;;;;;;1.58;1.48;;;;;;;;;;5013105;28;20472;-54
2022/09/13 04:47:17;;;;;;;1.65;1.55;;;;;;;;;;5013052;28;20038;-54
2022/09/13 04:49:43;;;;;;;1.50;1.40;;;;;;;;;;5013037;28;20026;-54
2022/09/13 04:52:09;;;;;;;1.48;1.38;;;;;;;;;;5013162;28;20034;-54
2022/09/13 04:54:35;;;;;;;1.73;1.58;;;;;;;;;;5013062;28;20101;-56
2022/09/13 04:57:01;;;;;;;1.60;1.42;;;;;;;;;;5012950;28;20037;-51
2022/09/13 04:59:27;;;;;;;2.25;1.73;;;;;;;;;;5012992;28;20159;-54
2022/09/13 05:01:53;;;;;;;2.15;1.70;;;;;;;;;;5012697;28;20480;-54
2022/09/13 05:04:19;;;;;;;1.70;1.60;;;;;;;;;;5012688;28;20053;-54
2022/09/13 05:06:47;;;;;;;1.80;1.70;;;;;;;;;;5012740;28;20029;-54
2022/09/13 05:09:14;;;;;;;1.88;1.65;;;24.50;80.30;;;;;;5012817;28;20033;-55
2022/09/13 05:11:40;;;;;;;1.35;1.15;;;;;;;;;;5012768;28;20030;-54
2022/09/13 05:14:06;;;;;;;1.60;1.50;;;;;;;;;;5012656;28;20473;-55
2022/09/13 05:16:32;;;;;;;1.90;1.35;;;24.50;80.10;;;;;;5012668;28;20036;-55
2022/09/13 05:18:58;;;;;;;1.38;1.27;;;;;;;;;;5012544;28;20022;-54
2022/09/13 05:21:26;;;;;;;1.63;1.50;;;;;;;;;;5012461;28;20038;-54
2022/09/13 05:23:53;;;;;;;2.03;1.60;;;;;;;;;;5012536;28;20491;-55
2022/09/13 05:26:19;;;;;;;1.40;1.30;;;;;;;;;;5012566;28;20030;-55
2022/09/13 05:28:45;;;;;;;1.50;1.40;;;;;;;;;;5012531;28;20085;-53
2022/09/13 05:31:16;;;;;;;2.22;1.73;;;24.50;74.30;;;;;;5012433;28;20037;-50
2022/09/13 05:33:42;;;;;;;1.50;1.40;;;;;;;;;;5012524;28;20033;-51
2022/09/13 05:36:08;;;;;;;1.80;1.70;;;;;;;;;;5012525;28;20040;-52
2022/09/13 05:38:34;;;;;;;2.30;1.60;;;;;;;;;;5012543;28;20392;-51
2022/09/13 05:41:01;;;;;;;1.73;1.20;;;24.50;80.40;;;;;;5012288;28;20116;-50
2022/09/13 05:43:29;;;;;;;5.60;1.80;;;24.30;80.70;;;;;;5012469;28;20120;-51
2022/09/13 05:46:09;;;;;;;2.13;1.88;;;24.50;74.40;;;;;;5012733;28;20030;-58
2022/09/13 05:48:35;;;;;;;;;;;24.50;75.10;;;;;;5012960;28;20034;-58
2022/09/13 05:51:15;;;;;;;1.60;1.50;;;24.50;74.20;;;;;;5012405;28;20062;-58
2022/09/13 05:53:42;;;;;;;;;;;24.40;74.90;;;;;;5012855;28;20025;-58
2022/09/13 05:56:09;;;;;;;5.07;1.60;;;24.60;76.80;;;;;;5012468;28;19905;-58
2022/09/13 05:58:38;;;;;;;2.50;1.75;;;24.50;80.50;;;;;;5016406;28;20034;-58
2022/09/13 06:01:04;;;;;;;1.65;1.55;;;;;;;;;;5016231;28;20107;-58
2022/09/13 06:03:30;;;;;;;1.98;1.75;;;;;;;;;;5016027;28;20065;-58
2022/09/13 06:05:57;;;;;;;1.95;1.52;;;;;;;;;;5016263;28;20030;-58
2022/09/13 06:08:25;;;;;;;2.28;1.77;;;24.50;80.80;;;;;;5016215;28;20037;-58
2022/09/13 06:10:54;;;;;;;3.53;1.77;;;24.60;74.50;;;;;;5016145;28;20026;-58
2022/09/13 06:13:21;;;;;;;4.07;1.50;;;;;;;;;;5016091;28;20026;-58
2022/09/13 06:15:47;;;;;;;1.98;1.70;;;;;;;;;;5016088;28;20033;-58
2022/09/13 06:18:12;;;;;;;2.65;1.60;;;;;;;;;;5016018;28;20484;-58
2022/09/13 06:20:38;;;;;;;1.70;1.60;;;;;;;;;;5015986;28;20441;-56
2022/09/13 06:23:04;;;;;;;1.35;1.25;;;;;;;;;;5016012;28;20103;-56
2022/09/13 06:25:30;;;;;;;1.80;1.70;;;;;;;;;;5015952;28;20029;-55
2022/09/13 06:27:56;;;;;;;1.98;1.40;;;;;;;;;;5015823;28;20030;-56
2022/09/13 06:30:22;;;;;;;3.55;1.77;;;;;;;;;;5015545;28;20022;-56
2022/09/13 06:32:48;;;;;;;1.88;1.73;;;;;;;;;;5015658;28;20037;-55
2022/09/13 06:35:15;;;;;;;1.70;1.60;;;;;;;;;;5014973;28;20032;-56
2022/09/13 06:37:41;;;;;;;2.67;2.10;;;;;;;;;;5014448;28;20404;-57
2022/09/13 06:40:08;;;;;;;4.68;1.70;;;;;;;;;;5015822;28;20026;-56
2022/09/13 06:42:35;;;;;;;2.53;2.30;;;24.50;81.40;;;;;;5015547;28;20045;-53
2022/09/13 06:45:00;;;;;;;2.13;1.48;;;;;;;;;;5015568;28;20054;-52
2022/09/13 06:47:26;;;;;;;3.00;1.63;;;;;;;;;;5015393;28;20070;-53
2022/09/13 06:49:52;;;;;;;2.72;1.50;;;;;;;;;;5015377;28;20025;-53
2022/09/13 06:52:18;;;;;;;2.35;1.80;;;;;;;;;;5015313;28;20071;-53
2022/09/13 06:54:44;;;;;;;2.17;1.60;;;;;;;;;;5015359;28;20362;-51
2022/09/13 06:57:10;;;;;;;2.05;1.65;;;;;;;;;;5015281;28;20033;-50
2022/09/13 06:59:36;;;;;;;2.95;1.35;;;;;;;;;;5014009;28;20037;-57
2022/09/13 07:02:02;;;;;;;3.13;1.65;;;;;;;;;;5014942;28;20042;-56
2022/09/13 07:04:30;;;;;;;3.42;1.58;;;;;;;;;;5015085;28;20034;-55
2022/09/13 07:06:57;;;;;;;1.38;1.25;;;24.50;80.10;;;;;;5015123;28;20029;-55
2022/09/13 07:09:23;;;;;;;1.83;1.70;;;;;;;;;;5015102;28;20040;-55
2022/09/13 07:11:52;;;;;;;3.70;1.50;;;24.70;81.70;;;;;;5013704;28;20527;-57
2022/09/13 07:14:21;;;;;;;4.28;1.80;;;24.50;81.70;;;;;;5015204;28;20021;-59
2022/09/13 07:16:47;;;;;;;1.77;1.63;;;;;;;;;;5015000;28;20053;-59
2022/09/13 07:19:25;;;;;;;3.00;1.85;;;24.50;75.70;;;;;;5014911;28;20493;-52
2022/09/13 07:21:51;;;;;;;2.83;2.00;;;24.50;81.10;;;;;;5014767;28;20037;-54
2022/09/13 07:24:18;;;;;;;3.10;1.95;;;24.70;78.40;;;;;;5014586;28;20498;-55
2022/09/13 07:26:45;;;;;;;2.63;1.73;;;;;;;;;;5014560;28;20512;-54
2022/09/13 07:29:17;;;;;;;2.30;1.90;;;24.70;82.00;;;;;;5014610;28;20026;-54
2022/09/13 07:31:45;;;;;;;2.38;1.77;;;24.50;80.80;;;;;;5014475;28;20032;-54
2022/09/13 07:34:13;;;;;;;2.63;1.67;;;24.60;82.30;;;;;;5014450;28;20040;-55
2022/09/13 07:36:39;;;;;;;2.92;1.40;;;;;;;;;;5014319;28;20480;-53
2022/09/13 07:39:05;;;;;;;3.78;2.00;;;;;;;;;;5014389;28;20119;-54
2022/09/13 07:41:32;;;;;;;1.65;1.27;;;24.30;81.90;;;;;;5014098;28;20049;-55
2022/09/13 07:44:00;;;;;;;2.38;1.45;;;24.40;80.60;;;;;;5014016;28;20480;-53
2022/09/13 07:46:28;;;;;;;3.72;1.52;;;24.50;82.30;;;;;;5014246;28;20096;-55
2022/09/13 07:48:56;;;;;;;2.28;1.38;;;24.50;82.50;;;;;;5014397;28;20369;-52
2022/09/13 07:51:26;;;;;;;2.25;1.40;;;24.50;76.10;;;;;;5013220;28;20025;-54
2022/09/13 07:53:55;;;;;;;3.17;1.55;;;24.50;82.40;;;;;;5014074;28;20026;-54
2022/09/13 07:56:30;;;;;;;3.90;1.23;;;24.60;76.00;;;;;;5014138;28;20106;-59
2022/09/13 07:58:59;;;;;;;1.45;1.33;;;24.50;82.00;;;;;;5014122;28;20097;-59
2022/09/13 08:01:28;;;;;;;2.90;1.67;;;24.50;82.10;;;;;;5013926;28;20147;-59
2022/09/13 08:03:54;;;;;;;4.25;1.60;;;24.60;81.80;;;;;;5013706;28;20046;-60
2022/09/13 08:06:21;;;;;;;2.83;1.52;;;;;;;;;;5013777;28;20077;-59
2022/09/13 08:08:47;;;;;;;2.45;1.20;;;;;;;;;;5013679;28;20037;-59
2022/09/13 08:11:18;;;;;;;1.98;1.50;;;24.60;82.30;;;;;;5013722;28;20061;-60
2022/09/13 08:13:45;;;;;;;5.90;1.92;;;24.70;82.30;;;;;;5013758;28;20109;-60
2022/09/13 08:16:11;;;;;;;1.60;1.23;;;;;;;;;;5013940;28;20105;-60
2022/09/13 08:18:37;;;;;;;4.57;1.60;;;;;;;;;;5013502;28;20083;-59
2022/09/13 08:21:03;;;;;;;2.33;1.40;;;;;;;;;;5013123;28;20041;-59
2022/09/13 08:23:30;;;;;;;1.20;1.10;;;;;;;;;;5013490;28;20018;-59
2022/09/13 08:26:00;;;;;;;2.47;1.33;;;24.70;82.20;;;;;;5013387;28;20026;-60
2022/09/13 08:28:26;;;;;;;2.72;1.10;;;;;;;;;;5013364;28;20069;-59
2022/09/13 08:30:52;;;;;;;2.67;1.02;;;;;;;;;;5013244;28;20143;-59
2022/09/13 08:33:18;;;;;;;2.03;1.25;;;;;;;;;;5013345;28;20037;-59
2022/09/13 08:35:51;;;;;;;1.60;0.80;;;24.70;76.00;;;;;;5013174;28;20030;-60
2022/09/13 08:38:17;;;;;;;1.73;1.27;;;;;;;;;;5013155;28;20030;-60
2022/09/13 08:40:49;;;;;;;1.33;0.90;;;24.70;82.00;;;;;;5012988;28;20029;-60
2022/09/13 08:43:39;;;;;;;2.10;1.10;;;24.70;75.50;;;;;;5013308;28;20037;-59
2022/09/13 08:46:12;;;;;;;2.20;1.00;;;24.70;81.60;;;;;;5013199;28;20037;-59
2022/09/13 08:48:43;;;;;;;1.92;1.00;;;24.70;81.80;;;;;;5013412;28;20034;-60
2022/09/13 08:51:20;;;;;;;;;;;24.80;82.20;;;;;;5013879;28;20376;-60
2022/09/13 08:53:48;;;;;;;0.98;0.82;;;24.60;81.60;;;;;;5013097;28;20283;-60
2022/09/13 08:56:53;;;;;;;0.77;0.77;;;24.80;75.60;;;;;;5013029;28;20061;-60
2022/09/13 08:59:59;;;;;;;2.55;0.90;;;24.60;75.40;;;;;;5013039;28;20033;-58
2022/09/13 09:02:50;;;;;;;3.33;1.25;;;24.90;75.30;;;;;;5012711;28;20050;-58
2022/09/13 09:05:16;;;;;;;3.15;1.00;;;;;;;;;;5013284;28;20018;-59
2022/09/13 09:07:47;;;;;;;2.65;1.10;;;24.90;81.70;;;;;;5012972;28;20105;-59
2022/09/13 09:10:20;;;;;;;1.50;1.00;;;25.00;81.70;;;;;;5012957;28;20030;-58
2022/09/13 09:13:00;;;;;;;1.67;0.80;;;24.90;75.50;;;;;;5012762;28;20022;-58
2022/09/13 09:15:28;;;;;;;;;;;24.90;76.20;;;;;;5013224;28;20456;-59
2022/09/13 09:18:17;;;;;;;3.50;1.27;;;25.00;75.50;;;;;;5012677;28;19905;-59
2022/09/13 09:20:52;;;;;;;3.03;1.10;;;25.00;75.70;;;;;;5012612;28;20034;-59
2022/09/13 09:23:24;;;;;;;1.33;0.90;;;25.00;75.50;;;;;;5012698;28;20053;-59
2022/09/13 09:26:04;;;;;;;1.10;0.88;;;25.00;81.60;;;;;;5012568;28;20038;-58
2022/09/13 09:28:30;;;;;;;1.50;0.90;;;;;;;;;;5012804;28;20026;-50
2022/09/13 09:31:13;;;;;;;1.85;0.80;;;24.90;75.20;;;;;;5011846;28;20037;-53
2022/09/13 09:33:56;;;;;;;2.97;0.93;;;25.00;75.20;;;;;;5012576;28;20481;-53
2022/09/13 09:36:39;;;;;;;2.03;0.95;;;25.00;74.90;;;;;;5012634;28;20034;-50
2022/09/13 09:39:06;;;;;;;2.13;0.95;;;;;;;;;;5012403;28;20101;-50
2022/09/13 09:41:34;;;;;;;1.17;0.70;;;25.00;79.60;;;;;;5012591;28;20387;-51
2022/09/13 09:44:20;;;;;;;1.80;1.00;;;25.10;73.50;;;;;;5012336;28;20042;-52
2022/09/13 09:46:54;;;;;;;0.90;0.68;;;25.20;79.60;;;;;;5012497;28;20548;-58
2022/09/13 09:52:27;;;;;;;2.05;0.88;;;24.70;79.30;;;;;;5012735;28;20176;-58
2022/09/13 09:54:56;;;;;;;0.75;0.60;;;;;;;;;;5012675;28;20025;-58
2022/09/13 09:58:00;;;;;;;1.90;0.90;;;25.10;78.30;;;;;;5012312;28;20041;-58
2022/09/13 10:00:32;;;;;;;1.08;0.70;;;24.90;71.60;;;;;;5012386;28;20392;-59
2022/09/13 10:03:06;;;;;;;2.38;0.85;;;25.10;71.30;;;;;;5012144;28;20543;-59
2022/09/13 10:05:34;;;;;;;3.75;0.90;;;25.10;77.10;;;;;;5012365;28;20026;-58
2022/09/13 10:08:06;;;;;;;1.80;0.80;;;25.10;77.00;;;;;;5012237;28;20087;-58
2022/09/13 10:10:33;;;;;;;1.20;0.88;;;;;;;;;;5012351;28;20022;-58
2022/09/13 10:12:59;;;;;;;1.08;0.80;;;;;;;;;;5012159;28;20033;-58
2022/09/13 10:15:33;;;;;;;1.33;0.80;;;24.80;77.10;;;;;;5012230;28;20030;-58
2022/09/13 10:18:15;;;;;;;1.85;0.77;;;25.20;71.40;;;;;;5011985;28;20037;-59
2022/09/13 10:20:42;;;;;;;1.33;0.95;;;25.50;74.00;;;;;;5010492;28;20507;-59
2022/09/13 10:23:18;;;;;;;1.30;1.10;;;25.10;71.10;;;;;;5012133;28;20033;-59
2022/09/13 10:25:55;;;;;;;2.85;0.70;;;25.40;77.10;;;;;;5011972;28;20484;-58
2022/09/13 10:28:21;;;;;;;0.95;0.80;;;;;;;;;;5012235;28;20370;-58
2022/09/13 10:30:54;;;;;;;1.30;0.63;;;25.20;70.90;;;;;;5011910;28;20062;-59
2022/09/13 10:33:23;;;;;;;0.85;0.65;;;25.20;70.70;;;;;;5011825;28;20107;-58
2022/09/13 10:35:49;;;;;;;0.98;0.65;;;25.30;77.00;;;;;;5012128;28;20030;-59
2022/09/13 10:38:26;;;;;;;0.80;0.70;;;25.20;70.80;;;;;;5012105;28;20021;-59
2022/09/13 10:40:52;;;;;;;1.83;0.73;;;;;;;;;;5012085;28;20407;-59
2022/09/13 10:43:20;;;;;;;0.68;0.50;;;;;;;;;;5013343;28;20041;-60
2022/09/13 10:45:49;;;;;;;2.05;0.50;;;25.30;77.00;;;;;;5015321;28;20061;-59
2022/09/13 10:48:17;;;;;;;0.70;0.40;;;25.20;76.90;;;;;;5015230;28;20053;-60
2022/09/13 10:51:02;;;;;;;0.75;0.70;;;25.30;70.90;;;;;;5015233;28;20034;-59
2022/09/13 10:53:39;;;;;;;2.05;0.82;;;25.20;70.90;;;;;;5015392;28;20602;-60
2022/09/13 10:56:18;;;;;;;7.80;0.60;;;25.30;76.60;;;;;;5015385;28;20053;-59
2022/09/13 10:58:44;;;;;;;1.17;0.50;;;;;;;;;;5015156;28;20038;-59
2022/09/13 11:01:29;;;;;;;0.75;0.60;;;25.10;70.20;;;;;;5015051;28;20061;-59
2022/09/13 11:04:36;;;;;;;2.75;0.57;;;25.50;70.70;;;;;;5014988;28;20497;-59
2022/09/13 11:07:27;;;;;;;0.85;0.60;;;25.30;76.60;;;;;;5015009;28;20269;-59
2022/09/13 11:10:20;;;;;;;1.40;0.68;;;25.30;70.60;;;;;;5014934;28;20097;-59
2022/09/13 11:13:10;;;;;;;0.90;0.45;;;25.30;76.70;;;;;;5014888;28;20030;-59
2022/09/13 11:15:42;;;;;;;;;;;25.30;71.40;;;;;;5015288;28;20036;-59
2022/09/13 11:18:32;;;;;;;1.40;0.60;;;25.30;70.80;;;;;;5014890;28;20291;-49
2022/09/13 11:21:08;;;;;;;1.52;0.52;;;25.30;70.80;;;;;;5014701;28;20030;-51
2022/09/13 11:23:34;;;;;;;0.68;0.60;;;;;;;;;;5014786;28;20121;-49
2022/09/13 11:26:23;;;;;;;1.20;0.47;;;25.40;70.70;;;;;;5014633;28;20430;-50
2022/09/13 11:29:10;;;;;;;2.50;0.50;;;25.30;76.60;;;;;;5014583;28;20092;-52
2022/09/13 11:32:05;;;;;;;0.50;0.35;;;25.40;70.60;;;;;;5014757;28;20057;-51
2022/09/13 11:35:00;;;;;;;0.80;0.45;;;25.50;70.70;;;;;;5014400;28;20061;-50
2022/09/13 11:37:34;;;;;;;2.40;0.50;;;25.20;70.30;;;;;;5014497;28;20325;-50
2022/09/13 11:40:18;;;;;;;0.68;0.60;;;25.50;70.40;;;;;;5014233;28;20053;-50
2022/09/13 11:43:12;;;;;;;2.17;0.50;;;25.50;76.30;;;;;;5014204;28;20038;-49
2022/09/13 11:46:01;;;;;;;1.58;0.65;;;25.50;76.30;;;;;;5014219;28;20105;-50
2022/09/13 11:49:09;;;;;;;0.50;0.50;;;25.50;70.40;;;;;;5014582;28;20433;-51
2022/09/13 11:51:35;;;;;;;0.50;0.40;;;;;;;;;;5014192;28;20030;-50
2022/09/13 11:54:26;;;;;;;1.20;0.38;;;25.50;70.30;;;;;;5013315;28;20033;-59
2022/09/13 11:56:58;;;;;;;1.55;0.43;;;25.50;76.10;;;;;;5014104;28;20029;-53
2022/09/13 11:59:33;;;;;;;1.65;0.70;;;25.50;76.20;;;;;;5014028;28;20058;-49
2022/09/13 12:02:09;;;;;;;0.60;0.60;;;25.50;76.40;;;;;;5013621;28;20404;-53
2022/09/13 12:04:42;;;;;;;0.98;0.50;;;25.60;70.20;;;;;;5014575;28;20029;-51
2022/09/13 12:07:17;;;;;;;1.17;0.40;;;25.70;76.10;;;;;;5013878;28;20030;-51
2022/09/13 12:09:54;;;;;;;1.83;0.60;;;25.60;70.30;;;;;;5013939;28;20033;-51
2022/09/13 12:12:25;;;;;;;1.15;0.60;;;25.80;76.20;;;;;;5013765;28;20472;-54
2022/09/13 12:15:16;;;;;;;0.68;0.32;;;25.40;69.60;;;;;;5013977;28;20373;-59
2022/09/13 12:17:47;;;;;;;0.70;0.30;;;25.60;75.50;;;;;;5006758;28;20038;-59
2022/09/13 12:20:29;;;;;;;1.10;0.40;;;25.90;76.00;;;;;;5013875;28;20469;-59
2022/09/13 12:23:00;;;;;;;0.45;0.40;;;25.70;76.00;;;;;;5014047;28;20033;-59
2022/09/13 12:25:51;;;;;;;1.15;0.52;;;25.70;75.80;;;;;;5013815;28;20021;-59
2022/09/13 12:28:23;;;;;;;1.75;0.20;;;25.70;76.20;;;;;;5005501;28;20073;-59
2022/09/13 12:31:11;;;;;;;1.63;0.40;;;25.70;70.10;;;;;;5013461;28;20022;-53
2022/09/13 12:33:39;;;;;;;2.00;0.30;;;25.70;76.10;;;;;;5013521;28;20030;-59
2022/09/13 12:36:29;;;;;;;0.38;0.22;;;26.00;70.50;;;;;;5013422;28;20032;-59
2022/09/13 12:39:03;;;;;;;0.30;0.30;;;25.50;70.00;;;;;;5013323;28;20029;-59
2022/09/13 12:41:29;;;;;;;1.10;0.45;;;;;;;;;;5013168;28;20042;-59
2022/09/13 12:43:55;;;;;;;1.80;0.50;;;;;;;;;;5013200;28;20088;-59
2022/09/13 12:46:36;;;;;;;0.47;0.40;;;25.80;70.20;;;;;;5013349;28;20073;-59
2022/09/13 12:49:30;;;;;;;0.95;0.30;;;25.60;70.00;;;;;;5013458;28;20392;-53
2022/09/13 12:52:14;;;;;;;1.77;0.38;;;25.70;70.10;;;;;;5013144;28;20034;-53
2022/09/13 12:54:43;;;;;;;0.40;0.32;;;25.70;70.00;;;;;;5013063;28;20029;-54
2022/09/13 12:57:20;;;;;;;4.03;0.60;;;25.70;70.10;;;;;;5013008;28;20104;-55
2022/09/13 13:00:00;;;;;;;0.73;0.40;;;25.70;70.20;;;;;;5013005;28;20120;-52
2022/09/13 13:02:32;;;;;;;1.15;0.30;;;25.70;70.10;;;;;;5012590;28;20112;-55
2022/09/13 13:05:04;;;;;;;0.80;0.50;;;25.70;76.10;;;;;;5012647;28;20022;-54
2022/09/13 13:07:34;;;;;;;0.20;0.20;;;25.70;76.20;;;;;;5012682;28;20037;-54
2022/09/13 13:10:01;;;;;;;0.47;0.30;;;;;;;;;;5012748;28;20018;-59
2022/09/13 13:12:33;;;;;;;1.35;0.50;;;25.70;70.00;;;;;;5012670;28;20045;-59
2022/09/13 13:15:06;;;;;;;1.15;0.38;;;25.70;76.20;;;;;;5013348;28;20018;-60
2022/09/13 13:17:49;;;;;;;0.22;0.20;;;25.70;69.90;;;;;;5012830;28;20115;-59
2022/09/13 13:20:52;;;;;;;1.17;0.30;;;25.70;70.00;;;;;;5012716;28;20092;-60
2022/09/13 13:23:25;;;;;;;0.65;0.40;;;25.60;70.00;;;;;;5012663;28;20076;-59
2022/09/13 13:26:19;;;;;;;0.80;0.30;;;25.60;70.10;;;;;;5012629;28;20057;-59
2022/09/13 13:28:46;;;;;;;0.30;0.20;;;;;;;;;;5012566;28;20038;-51
2022/09/13 13:31:12;;;;;;;1.30;0.38;;;;;;;;;;5012847;28;20436;-52
2022/09/13 13:33:48;;;;;;;0.32;0.30;;;25.40;70.10;;;;;;5012407;28;20038;-54
2022/09/13 13:36:27;;;;;;;0.57;0.28;;;25.60;70.10;;;;;;5012331;28;20041;-54
2022/09/13 13:38:54;;;;;;;0.63;0.30;;;;;;;;;;5012301;28;20057;-54
2022/09/13 13:41:31;;;;;;;0.47;0.35;;;25.70;70.10;;;;;;5012250;28;20040;-50
2022/09/13 13:43:58;;;;;;;0.50;0.30;;;;;;;;;;5012337;28;20033;-52
2022/09/13 13:46:27;;;;;;;0.95;0.40;;;25.70;76.10;;;;;;5012762;28;20029;-59
2022/09/13 13:48:53;;;;;;;1.23;0.40;;;;;;;;;;5012317;28;20380;-59
2022/09/13 13:51:24;;;;;;;1.23;0.45;;;25.50;69.70;;;;;;5012225;28;20032;-60
2022/09/13 13:53:57;;;;;;;0.77;0.30;;;25.90;76.30;;;;;;5012158;28;20523;-60
2022/09/13 13:56:30;;;;;;;1.30;0.40;;;25.60;76.10;;;;;;5012275;28;20026;-59
2022/09/13 13:59:15;;;;;;;2.20;0.40;;;25.60;70.20;;;;;;5012323;28;20113;-60
2022/09/13 14:01:47;;;;;;;0.55;0.30;;;25.70;76.20;;;;;;5010634;28;20103;-60
2022/09/13 14:04:38;;;;;;;1.17;0.40;;;25.60;69.80;;;;;;5011748;28;20413;-59